Time;durP1;ratioP1;P1;durP2;ratioP2;P2;SDS_P1;SDS_P2;PMS_P1;PMS_P2;Temp;Humidity;BMP_temperature;BMP_pressure;BME280_temperature;BME280_humidity;BME280_pressure;Samples;Min_cycle;Max_cycle;Signal;HPM_P1;HPM_P2
2023/06/25 00:01:50;;;;;;;;;;;;;;;18.04;63.05;96865.25;5085948;28;19941;-79
2023/06/25 00:04:16;;;;;;;;;;;;;;;18.00;62.70;96866.81;5086652;28;19932;-72
2023/06/25 00:06:42;;;;;;;;;;;;;;;17.97;63.04;96868.09;5085814;28;20140;-71
2023/06/25 00:09:09;;;;;;;;;;;;;;;17.93;62.92;96852.97;5086251;28;20225;-71
2023/06/25 00:11:34;;;;;;;;;;;;;;;17.91;63.32;96866.50;5085712;28;20196;-71
2023/06/25 00:14:01;;;;;;;;;;;;;;;17.89;63.59;96863.31;5086370;28;19942;-71
2023/06/25 00:16:29;;;;;;;;;;;;;;;17.87;63.38;96864.59;5085607;28;19941;-71
2023/06/25 00:18:55;;;;;;;;;;;;;;;17.83;63.70;96867.75;5085441;28;19959;-72
2023/06/25 00:21:21;;;;;;;;;;;;;;;17.80;64.48;96864.78;5084420;28;19965;-78
2023/06/25 00:23:47;;;;;;;;;;;;;;;17.75;64.27;96865.53;5085519;28;19991;-78
2023/06/25 00:26:13;;;;;;;;;;;;;;;17.72;64.01;96866.03;5085442;28;20018;-78
2023/06/25 00:28:39;;;;;;;;;;;;;;;17.70;63.77;96856.72;5085337;28;19941;-79
2023/06/25 00:31:05;;;;;;;;;;;;;;;17.67;64.26;96852.75;5101583;28;19949;-79
2023/06/25 00:33:32;;;;;;;;;;;;;;;17.61;64.22;96854.53;5085341;28;19935;-78
2023/06/25 00:35:57;;;;;;;;;;;;;;;17.60;65.24;96857.47;5084768;28;19943;-75
2023/06/25 00:38:24;;;;;;;;;;;;;;;17.56;65.33;96851.84;5085683;28;20033;-78
2023/06/25 00:40:50;;;;;;;;;;;;;;;17.55;64.65;96844.16;5085182;28;19955;-69
2023/06/25 00:43:16;;;;;;;;;;;;;;;17.53;65.37;96852.34;5084675;28;20199;-70
2023/06/25 00:45:42;;;;;;;;;;;;;;;17.49;65.17;96845.16;5084707;28;19944;-70
2023/06/25 00:48:09;;;;;;;;;;;;;;;17.47;65.16;96842.78;5084956;28;19939;-69
2023/06/25 00:50:34;;;;;;;;;;;;;;;17.43;65.54;96839.81;5084948;28;19937;-69
2023/06/25 00:53:02;;;;;;;;;;;;;;;17.42;65.66;96840.06;5084883;28;20109;-69
2023/06/25 00:55:28;;;;;;;;;;;;;;;17.38;65.68;96841.63;5085093;28;20117;-70
2023/06/25 00:57:56;;;;;;;;;;;;;;;17.35;66.53;96834.97;5084694;28;20119;-71
2023/06/25 01:00:24;;;;;;;;;;;;;;;17.34;66.13;96840.50;5085313;28;19939;-71
2023/06/25 01:03:00;;;;;;;;;;;;;;;17.32;66.32;96837.31;5084622;28;20134;-72
2023/06/25 01:05:28;;;;;;;;;;;;;;;17.30;67.03;96828.81;5084705;28;19953;-71
2023/06/25 01:07:57;;;;;;;;;;;;;;;17.25;65.97;96827.72;5100915;28;20211;-71
2023/06/25 01:10:23;;;;;;;;;;;;;;;17.23;66.96;96827.16;5084525;28;19947;-71
2023/06/25 01:12:49;;;;;;;;;;;;;;;17.19;67.26;96825.28;5100902;28;20102;-69
2023/06/25 01:15:15;;;;;;;;;;;;;;;17.13;66.48;96818.31;5084475;28;19935;-75
2023/06/25 01:17:41;;;;;;;;;;;;;;;17.09;66.02;96818.00;5085244;28;20285;-69
2023/06/25 01:20:13;;;;;;;;;;;;;;;17.04;67.25;96826.72;5084242;28;19996;-69
2023/06/25 01:22:42;;;;;;;;;;;;;;;17.01;66.97;96823.78;5100527;28;19944;-70
2023/06/25 01:25:08;;;;;;;;;;;;;;;16.98;67.14;96826.91;5084329;28;19945;-69
2023/06/25 01:27:35;;;;;;;;;;;;;;;16.96;67.69;96821.84;5084375;28;20126;-69
2023/06/25 01:30:01;;;;;;;;;;;;;;;16.94;67.20;96823.97;5100046;28;19933;-69
2023/06/25 01:32:28;;;;;;;;;;;;;;;16.93;67.51;96818.94;5084237;28;19959;-72
2023/06/25 01:34:53;;;;;;;;;;;;;;;16.89;66.54;96810.66;5084243;28;19934;-71
2023/06/25 01:37:19;;;;;;;;;;;;;;;16.87;68.09;96825.22;5083305;28;19941;-71
2023/06/25 01:39:49;;;;;;;;;;;;;;;16.84;68.08;96821.22;5084701;28;19934;-71
2023/06/25 01:42:15;;;;;;;;;;;;;;;16.81;68.55;96819.06;5082924;28;19952;-71
2023/06/25 01:44:41;;;;;;;;;;;;;;;16.78;68.35;96817.69;5083711;28;19983;-70
2023/06/25 01:47:07;;;;;;;;;;;;;;;16.74;68.77;96816.56;5084655;28;19939;-71
2023/06/25 01:49:33;;;;;;;;;;;;;;;16.72;68.63;96809.94;5084087;28;19936;-71
2023/06/25 01:51:59;;;;;;;;;;;;;;;16.69;68.74;96802.47;5084067;28;20260;-71
2023/06/25 01:54:25;;;;;;;;;;;;;;;16.64;67.65;96797.91;5083603;28;19951;-69
2023/06/25 01:56:51;;;;;;;;;;;;;;;16.59;69.16;96800.53;5084558;28;19940;-71
2023/06/25 01:59:17;;;;;;;;;;;;;;;16.53;68.65;96797.00;5084139;28;19956;-70
2023/06/25 02:01:43;;;;;;;;;;;;;;;16.51;69.44;96803.59;5084020;28;19986;-69
2023/06/25 02:04:09;;;;;;;;;;;;;;;16.48;68.75;96801.44;5083961;28;19970;-69
2023/06/25 02:06:34;;;;;;;;;;;;;;;16.44;68.54;96799.28;5083938;28;19953;-69
2023/06/25 02:09:00;;;;;;;;;;;;;;;16.43;69.30;96799.53;5083881;28;19935;-76
2023/06/25 02:11:26;;;;;;;;;;;;;;;16.39;68.97;96793.91;5084290;28;19987;-73
2023/06/25 02:13:52;;;;;;;;;;;;;;;16.37;70.11;96795.22;5082672;28;19939;-73
2023/06/25 02:16:18;;;;;;;;;;;;;;;16.37;70.27;96792.56;5083815;28;19947;-74
2023/06/25 02:18:44;;;;;;;;;;;;;;;16.35;70.22;96787.50;5083708;28;19984;-73
2023/06/25 02:21:10;;;;;;;;;;;;;;;16.31;70.59;96781.09;5083645;28;20042;-73
2023/06/25 02:23:36;;;;;;;;;;;;;;;16.30;70.49;96784.03;5084321;28;19937;-71
2023/06/25 02:26:02;;;;;;;;;;;;;;;16.27;70.55;96787.94;5083878;28;19946;-75
2023/06/25 02:28:27;;;;;;;;;;;;;;;16.23;70.14;96777.06;5083685;28;19939;-70
2023/06/25 02:30:53;;;;;;;;;;;;;;;16.20;70.92;96782.03;5066394;28;19936;-77
2023/06/25 02:33:19;;;;;;;;;;;;;;;16.15;71.39;96785.41;5083623;28;19989;-81
2023/06/25 02:35:45;;;;;;;;;;;;;;;16.13;71.44;96786.72;5084415;28;19931;-81
2023/06/25 02:38:11;;;;;;;;;;;;;;;16.10;71.15;96790.63;5083526;28;19949;-80
2023/06/25 02:40:37;;;;;;;;;;;;;;;16.08;71.41;96791.94;5084153;28;20010;-82
2023/06/25 02:43:03;;;;;;;;;;;;;;;16.03;70.81;96787.38;5084134;28;19937;-80
2023/06/25 02:45:29;;;;;;;;;;;;;;;15.97;71.60;96794.44;5083565;28;19972;-72
2023/06/25 02:47:54;;;;;;;;;;;;;;;15.93;71.91;96789.88;5083443;28;19969;-72
2023/06/25 02:50:20;;;;;;;;;;;;;;;15.90;72.13;96785.88;5085453;28;19971;-72
2023/06/25 02:52:47;;;;;;;;;;;;;;;15.84;71.93;96784.19;5086001;28;19938;-72
2023/06/25 02:55:13;;;;;;;;;;;;;;;15.83;72.22;96790.53;5087909;28;19935;-72
2023/06/25 02:57:39;;;;;;;;;;;;;;;15.79;72.90;96792.03;5087078;28;19939;-72
2023/06/25 03:00:05;;;;;;;;;;;;;;;15.76;73.16;96788.03;5087248;28;19939;-72
2023/06/25 03:02:31;;;;;;;;;;;;;;;15.73;72.75;96782.47;5102836;28;19939;-71
2023/06/25 03:04:57;;;;;;;;;;;;;;;15.69;73.90;96781.31;5103000;28;19971;-72
2023/06/25 03:07:22;;;;;;;;;;;;;;;15.66;72.93;96781.78;5103557;28;19942;-71
2023/06/25 03:09:48;;;;;;;;;;;;;;;15.62;73.35;96784.91;5085767;28;19934;-69
2023/06/25 03:12:14;;;;;;;;;;;;;;;15.60;73.62;96784.38;5087375;28;19948;-71
2023/06/25 03:14:41;;;;;;;;;;;;;;;15.59;73.51;96782.75;5086821;28;19934;-71
2023/06/25 03:17:06;;;;;;;;;;;;;;;15.57;73.72;96784.03;5086787;28;19940;-71
2023/06/25 03:19:32;;;;;;;;;;;;;;;15.54;74.12;96787.97;5085408;28;20029;-71
2023/06/25 03:21:58;;;;;;;;;;;;;;;15.51;74.78;96785.00;5047470;28;19945;-72
2023/06/25 03:24:24;;;;;;;;;;;;;;;15.46;74.39;96780.44;5046677;28;20225;-70
2023/06/25 03:26:50;;;;;;;;;;;;;;;15.46;74.33;96779.66;5046253;28;20103;-76
2023/06/25 03:29:16;;;;;;;;;;;;;;;15.43;74.60;96778.25;5047068;28;20234;-76
2023/06/25 03:31:42;;;;;;;;;;;;;;;15.42;74.74;96777.47;5046428;28;19955;-76
2023/06/25 03:34:08;;;;;;;;;;;;;;;15.39;75.35;96766.56;5046399;28;19946;-76
2023/06/25 03:36:34;;;;;;;;;;;;;;;15.35;74.60;96768.09;5046943;28;19935;-76
2023/06/25 03:39:00;;;;;;;;;;;;;;;15.32;75.05;96777.31;5046826;28;19953;-76
2023/06/25 03:41:26;;;;;;;;;;;;;;;15.29;75.64;96775.16;5046257;28;19932;-70
2023/06/25 03:43:52;;;;;;;;;;;;;;;15.28;75.22;96770.88;5045173;28;19941;-81
2023/06/25 03:46:17;;;;;;;;;;;;;;;15.25;75.63;96773.22;5045901;28;19962;-81
2023/06/25 03:48:44;;;;;;;;;;;;;;;15.22;75.47;96759.47;5046667;28;19927;-81
2023/06/25 03:51:10;;;;;;;;;;;;;;;15.19;76.08;96767.06;5046882;28;19936;-81
2023/06/25 03:53:40;;;;;;;;;;;;;;;15.14;75.73;96767.78;5046080;28;19940;-81
2023/06/25 03:56:06;;;;;;;;;;;;;;;15.12;76.58;96764.56;5046533;28;19937;-81
2023/06/25 03:58:33;;;;;;;;;;;;;;;15.12;76.10;96763.75;5046483;28;20135;-79
2023/06/25 04:00:59;;;;;;;;;;;;;;;15.11;77.78;96770.88;5043876;28;19939;-72
2023/06/25 04:03:25;;;;;;;;;;;;;;;15.10;76.49;96768.47;5046429;28;19972;-71
2023/06/25 04:05:51;;;;;;;;;;;;;;;15.11;77.54;96768.25;5045831;28;19936;-71
2023/06/25 04:08:17;;;;;;;;;;;;;;;15.12;77.76;96769.03;5046533;28;19935;-71
2023/06/25 04:10:43;;;;;;;;;;;;;;;15.11;77.56;96770.88;5045758;28;19951;-70
2023/06/25 04:13:09;;;;;;;;;;;;;;;15.13;78.50;96771.44;5045758;28;19938;-71
2023/06/25 04:15:35;;;;;;;;;;;;;;;15.17;77.69;96764.63;5045703;28;19941;-70
2023/06/25 04:18:01;;;;;;;;;;;;;;;15.23;77.27;96765.53;5045627;28;19936;-75
2023/06/25 04:20:27;;;;;;;;;;;;;;;15.28;77.56;96767.44;5060714;28;19970;-80
2023/06/25 04:22:54;;;;;;;;;;;;;;;15.31;77.11;96751.94;5086343;28;19940;-80
2023/06/25 04:25:20;;;;;;;;;;;;;;;15.37;77.24;96758.91;5085487;28;19933;-81
2023/06/25 04:27:46;;;;;;;;;;;;;;;15.43;77.33;96760.59;5085422;28;20014;-80
2023/06/25 04:30:12;;;;;;;;;;;;;;;15.50;77.49;96757.78;5085869;28;19947;-81
2023/06/25 04:32:38;;;;;;;;;;;;;;;15.57;76.98;96749.66;5085298;28;19949;-80
2023/06/25 04:35:04;;;;;;;;;;;;;;;15.67;77.31;96755.09;5085261;28;19963;-68
2023/06/25 04:37:30;;;;;;;;;;;;;;;15.73;76.90;96756.03;5085277;28;19944;-74
2023/06/25 04:39:56;;;;;;;;;;;;;;;15.83;77.61;96750.84;5101115;28;19953;-77
2023/06/25 04:42:22;;;;;;;;;;;;;;;15.93;77.65;96758.13;5085626;28;19981;-76
2023/06/25 04:44:48;;;;;;;;;;;;;;;16.00;76.79;96751.63;5084882;28;19931;-78
2023/06/25 04:47:14;;;;;;;;;;;;;;;16.09;77.44;96756.50;5085035;28;20121;-77
2023/06/25 04:49:39;;;;;;;;;;;;;;;16.17;78.04;96759.53;5100786;28;19958;-82
2023/06/25 04:52:05;;;;;;;;;;;;;;;16.29;76.36;96753.28;5084551;28;20018;-76
2023/06/25 04:54:31;;;;;;;;;;;;;;;16.37;76.00;96753.66;5084912;28;20225;-68
2023/06/25 04:56:57;;;;;;;;;;;;;;;16.42;74.92;96748.44;5085585;28;19932;-71
2023/06/25 04:59:23;;;;;;;;;;;;;;;16.48;74.90;96751.13;5085515;28;19953;-71
2023/06/25 05:01:49;;;;;;;;;;;;;;;16.54;74.88;96748.28;5083496;28;19938;-70
2023/06/25 05:04:14;;;;;;;;;;;;;;;16.64;74.58;96751.03;5084650;28;19959;-71
2023/06/25 05:06:40;;;;;;;;;;;;;;;16.76;74.59;96750.91;5083903;28;19948;-72
2023/06/25 05:09:06;;;;;;;;;;;;;;;16.90;73.95;96745.25;5084564;28;19939;-71
2023/06/25 05:11:32;;;;;;;;;;;;;;;17.04;73.59;96747.22;5084516;28;19989;-71
2023/06/25 05:13:58;;;;;;;;;;;;;;;17.21;73.26;96751.59;5084594;28;19937;-80
2023/06/25 05:16:24;;;;;;;;;;;;;;;17.38;73.46;96746.16;5083379;28;19977;-71
2023/06/25 05:18:50;;;;;;;;;;;;;;;17.59;73.21;96747.91;5100992;28;20249;-71
2023/06/25 05:21:15;;;;;;;;;;;;;;;17.82;72.19;96741.44;5084305;28;20009;-70
2023/06/25 05:23:55;;;;;;;;;;;;;;;18.07;72.20;96745.31;5083818;28;19947;-70
2023/06/25 05:26:21;;;;;;;;;;;;;;;18.33;71.47;96745.41;5100698;28;19938;-71
2023/06/25 05:28:47;;;;;;;;;;;;;;;18.56;70.79;96741.50;5084340;28;19936;-71
2023/06/25 05:31:13;;;;;;;;;;;;;;;18.80;69.73;96739.22;5083823;28;19937;-71
2023/06/25 05:33:39;;;;;;;;;;;;;;;18.99;68.19;96724.34;5083207;28;20236;-76
2023/06/25 05:36:04;;;;;;;;;;;;;;;19.16;69.12;96736.59;5083004;28;20223;-79
2023/06/25 05:38:30;;;;;;;;;;;;;;;19.35;68.72;96734.97;5084928;28;19953;-76
2023/06/25 05:40:56;;;;;;;;;;;;;;;19.58;67.65;96725.66;5084213;28;19933;-77
2023/06/25 05:43:22;;;;;;;;;;;;;;;19.79;66.96;96734.41;5084135;28;19934;-76
2023/06/25 05:45:48;;;;;;;;;;;;;;;19.87;66.71;96723.22;5084978;28;19940;-76
2023/06/25 05:48:14;;;;;;;;;;;;;;;19.90;66.43;96732.53;5084654;28;19935;-76
2023/06/25 05:50:39;;;;;;;;;;;;;;;20.03;66.64;96721.31;5084131;28;19981;-68
2023/06/25 05:53:05;;;;;;;;;;;;;;;20.18;65.71;96715.16;5084645;28;19976;-71
2023/06/25 05:55:31;;;;;;;;;;;;;;;20.33;65.82;96716.94;5084085;28;19939;-71
2023/06/25 05:57:57;;;;;;;;;;;;;;;20.46;64.44;96710.22;5084272;28;19964;-72
2023/06/25 06:00:23;;;;;;;;;;;;;;;20.66;63.94;96706.66;5084508;28;19954;-72
2023/06/25 06:02:49;;;;;;;;;;;;;;;20.84;63.46;96706.00;5084551;28;19939;-71
2023/06/25 06:05:15;;;;;;;;;;;;;;;20.98;63.08;96706.19;5083902;28;20227;-71
2023/06/25 06:07:40;;;;;;;;;;;;;;;21.15;62.60;96703.13;5084749;28;19936;-72
2023/06/25 06:10:06;;;;;;;;;;;;;;;21.38;62.74;96709.59;5083950;28;19943;-71
2023/06/25 06:12:32;;;;;;;;;;;;;;;21.54;60.99;96704.13;5099593;28;19945;-68
2023/06/25 06:14:58;;;;;;;;;;;;;;;21.74;60.56;96706.59;5084709;28;19958;-69
2023/06/25 06:17:24;;;;;;;;;;;;;;;21.92;59.63;96701.59;5082754;28;19951;-69
2023/06/25 06:19:50;;;;;;;;;;;;;;;22.01;59.20;96700.69;5083594;28;19954;-67
2023/06/25 06:22:16;;;;;;;;;;;;;;;22.18;59.61;96704.78;5084610;28;19944;-68
2023/06/25 06:24:42;;;;;;;;;;;;;;;22.17;56.88;96695.94;5086581;28;20263;-69
2023/06/25 06:27:08;;;;;;;;;;;;;;;22.29;57.34;96699.03;5088496;28;20091;-71
2023/06/25 06:29:34;;;;;;;;;;;;;;;22.36;56.66;96706.69;5087800;28;19937;-73
2023/06/25 06:32:00;;;;;;;;;;;;;;;22.39;55.38;96700.78;5087543;28;19963;-73
2023/06/25 06:34:26;;;;;;;;;;;;;;;22.49;56.02;96697.19;5088410;28;20262;-72
2023/06/25 06:36:52;;;;;;;;;;;;;;;22.68;55.76;96699.88;5088065;28;19939;-77
2023/06/25 06:39:18;;;;;;;;;;;;;;;22.82;53.67;96692.69;5087365;28;19987;-78
2023/06/25 06:41:44;;;;;;;;;;;;;;;23.00;55.92;96690.31;5088007;28;19989;-78
2023/06/25 06:44:13;;;;;;;;;;;;;;;23.16;53.98;96688.19;5103193;28;19937;-81
2023/06/25 06:46:39;;;;;;;;;;;;;;;23.29;55.05;96687.44;5087244;28;19963;-89
2023/06/25 06:49:05;;;;;;;;;;;;;;;23.48;53.95;96696.22;5086912;28;19939;-72
2023/06/25 06:51:31;;;;;;;;;;;;;;;23.67;52.81;96688.09;5103606;28;20092;-71
2023/06/25 06:53:57;;;;;;;;;;;;;;;23.87;52.38;96686.94;5087143;28;19948;-72
2023/06/25 06:56:44;;;;;;;;;;;;;;;24.03;52.44;96692.00;5086692;28;19942;-72
2023/06/25 06:59:10;;;;;;;;;;;;;;;24.21;51.31;96683.06;5089143;28;19961;-71
2023/06/25 07:01:36;;;;;;;;;;;;;;;24.37;50.83;96675.47;5088847;28;19944;-71
2023/06/25 07:04:01;;;;;;;;;;;;;;;24.48;48.86;96676.06;5106093;28;19935;-77
2023/06/25 07:06:27;;;;;;;;;;;;;;;24.57;50.02;96681.50;5088675;28;19945;-75
2023/06/25 07:08:53;;;;;;;;;;;;;;;24.58;48.23;96677.75;5105599;28;19968;-75
2023/06/25 07:11:19;;;;;;;;;;;;;;;24.61;49.50;96688.69;5106306;28;19949;-74
2023/06/25 07:13:46;;;;;;;;;;;;;;;24.67;49.37;96683.97;5105928;28;19969;-71
2023/06/25 07:16:11;;;;;;;;;;;;;;;24.78;50.26;96687.22;5105321;28;20033;-71
2023/06/25 07:18:37;;;;;;;;;;;;;;;24.96;50.27;96691.63;5105248;28;19941;-71
2023/06/25 07:21:03;;;;;;;;;;;;;;;24.99;49.68;96685.66;5105084;28;20004;-83
2023/06/25 07:23:29;;;;;;;;;;;;;;;24.99;50.15;96696.38;5088109;28;19943;-74
2023/06/25 07:25:55;;;;;;;;;;;;;;;24.87;47.90;96682.72;5088448;28;19960;-74
2023/06/25 07:28:21;;;;;;;;;;;;;;;24.75;47.71;96685.94;5088435;28;19950;-73
2023/06/25 07:30:47;;;;;;;;;;;;;;;24.82;49.81;96696.25;5085297;28;19943;-74
2023/06/25 07:33:13;;;;;;;;;;;;;;;24.98;50.28;96697.47;5085215;28;19960;-73
2023/06/25 07:35:39;;;;;;;;;;;;;;;25.17;49.21;96691.13;5083961;28;19982;-73
2023/06/25 07:38:05;;;;;;;;;;;;;;;25.26;48.17;96692.81;5086908;28;19928;-73
2023/06/25 07:40:30;;;;;;;;;;;;;;;25.20;46.21;96690.50;5086795;28;19956;-75
2023/06/25 07:42:56;;;;;;;;;;;;;;;25.19;47.62;96692.41;5085127;28;19951;-73
2023/06/25 07:45:23;;;;;;;;;;;;;;;25.28;45.22;96692.47;5086294;28;19948;-73
2023/06/25 07:47:49;;;;;;;;;;;;;;;25.34;46.18;96690.47;5086427;28;19990;-71
2023/06/25 07:50:15;;;;;;;;;;;;;;;25.45;46.61;96689.91;5085000;28;20222;-70
2023/06/25 07:52:41;;;;;;;;;;;;;;;25.62;47.77;96694.56;5102728;28;20223;-71
2023/06/25 07:55:07;;;;;;;;;;;;;;;25.68;46.69;96696.03;5086039;28;19931;-71
2023/06/25 07:57:33;;;;;;;;;;;;;;;25.75;45.90;96692.91;5086784;28;19937;-74
2023/06/25 07:59:58;;;;;;;;;;;;;;;25.83;45.63;96686.75;5086159;28;19952;-72
2023/06/25 08:02:24;;;;;;;;;;;;;;;25.80;44.26;96687.38;5086315;28;19961;-78
2023/06/25 08:04:50;;;;;;;;;;;;;;;25.96;45.72;96687.00;5101926;28;19991;-77
2023/06/25 08:07:16;;;;;;;;;;;;;;;26.17;44.56;96687.22;5102444;28;20007;-75
2023/06/25 08:09:43;;;;;;;;;;;;;;;26.29;43.37;96695.44;5101736;28;19946;-75
2023/06/25 08:12:09;;;;;;;;;;;;;;;26.30;43.33;96695.13;5086892;28;19934;-76
2023/06/25 08:14:35;;;;;;;;;;;;;;;26.22;42.39;96697.81;5085911;28;19939;-77
2023/06/25 08:17:01;;;;;;;;;;;;;;;26.33;43.82;96699.91;5085224;28;19938;-72
2023/06/25 08:19:27;;;;;;;;;;;;;;;26.38;40.29;96687.41;5085460;28;19949;-73
2023/06/25 08:21:53;;;;;;;;;;;;;;;26.38;42.13;96692.78;5084049;28;20313;-73
2023/06/25 08:24:19;;;;;;;;;;;;;;;26.49;42.15;96697.53;5084305;28;20223;-73
2023/06/25 08:26:45;;;;;;;;;;;;;;;26.64;43.70;96690.94;5084411;28;19935;-74
2023/06/25 08:29:11;;;;;;;;;;;;;;;26.67;38.67;96693.00;5085246;28;19937;-74
2023/06/25 08:31:37;;;;;;;;;;;;;;;26.77;40.15;96694.56;5084309;28;19954;-74
2023/06/25 08:34:03;;;;;;;;;;;;;;;26.86;38.84;96694.59;5084195;28;19942;-70
2023/06/25 08:36:29;;;;;;;;;;;;;;;26.82;39.36;96704.41;5101215;28;19932;-74
2023/06/25 08:38:55;;;;;;;;;;;;;;;26.96;38.67;96701.53;5085257;28;19941;-71
2023/06/25 08:41:20;;;;;;;;;;;;;;;27.01;37.52;96691.41;5084829;28;19946;-71
2023/06/25 08:43:46;;;;;;;;;;;;;;;27.04;36.30;96700.75;5085165;28;19970;-70
2023/06/25 08:46:13;;;;;;;;;;;;;;;26.97;33.65;96703.91;5085685;28;19934;-70
2023/06/25 08:48:39;;;;;;;;;;;;;;;26.92;34.62;96702.19;5085278;28;20227;-71
2023/06/25 08:51:17;;;;;;;;;;;;;;;26.98;34.38;96707.41;5085102;28;19965;-71
2023/06/25 08:53:44;;;;;;;;;;;;;;;26.83;34.15;96711.34;5085865;28;19942;-73
2023/06/25 08:56:11;;;;;;;;;;;;;;;26.85;33.82;96699.16;5084662;28;20114;-72
2023/06/25 08:58:36;;;;;;;;;;;;;;;26.98;35.64;96696.63;5101539;28;20102;-71
2023/06/25 09:01:03;;;;;;;;;;;;;;;27.16;35.22;96703.59;5084382;28;19955;-71
2023/06/25 09:03:29;;;;;;;;;;;;;;;27.32;35.44;96704.69;5084962;28;19942;-71
2023/06/25 09:05:56;;;;;;;;;;;;;;;27.35;34.49;96697.88;5083659;28;19944;-71
2023/06/25 09:08:22;;;;;;;;;;;;;;;27.34;34.62;96704.38;5083694;28;19942;-71
2023/06/25 09:10:48;;;;;;;;;;;;;;;27.48;35.70;96704.19;5083562;28;20245;-71
2023/06/25 09:13:20;;;;;;;;;;;;;;;27.59;35.03;96701.94;5083872;28;19950;-72
2023/06/25 09:15:45;;;;;;;;;;;;;;;27.73;33.37;96686.34;5101232;28;19936;-72
2023/06/25 09:18:11;;;;;;;;;;;;;;;27.86;35.39;96695.34;5084118;28;20217;-72
2023/06/25 09:20:38;;;;;;;;;;;;;;;28.01;34.65;96684.03;5100053;28;20036;-72
2023/06/25 09:23:05;;;;;;;;;;;;;;;27.98;33.90;96690.06;5084037;28;20201;-72
2023/06/25 09:25:33;;;;;;;;;;;;;;;27.93;33.03;96691.06;5082664;28;20933;-73
2023/06/25 09:28:02;;;;;;;;;;;;;;;27.82;33.41;96687.09;5083725;28;19948;-75
2023/06/25 09:30:28;;;;;;;;;;;;;;;27.88;34.62;96680.44;5100056;28;19936;-72
2023/06/25 09:32:55;;;;;;;;;;;;;;;28.00;33.69;96687.06;5083108;28;19956;-71
2023/06/25 09:35:21;;;;;;;;;;;;;;;28.10;35.81;96676.69;5100108;28;20131;-71
2023/06/25 09:37:49;;;;;;;;;;;;;;;28.12;34.28;96679.06;5083074;28;19944;-72
2023/06/25 09:40:14;;;;;;;;;;;;;;;28.12;32.44;96669.06;5082959;28;19954;-71
2023/06/25 09:42:42;;;;;;;;;;;;;;;28.02;33.30;96676.75;5084273;28;20281;-72
2023/06/25 09:45:08;;;;;;;;;;;;;;;28.00;34.41;96665.50;5084145;28;19941;-71
2023/06/25 09:47:36;;;;;;;;;;;;;;;28.10;33.64;96671.31;5084136;28;19940;-72
2023/06/25 09:50:05;;;;;;;;;;;;;;;28.20;34.27;96674.72;5084171;28;20122;-73
2023/06/25 09:52:31;;;;;;;;;;;;;;;28.27;33.99;96672.31;5099883;28;19939;-71
2023/06/25 09:54:57;;;;;;;;;;;;;;;28.34;32.60;96667.19;5100712;28;19933;-70
2023/06/25 09:57:25;;;;;;;;;;;;;;;28.44;32.81;96656.00;5082792;28;19943;-71
2023/06/25 09:59:51;;;;;;;;;;;;;;;28.38;32.79;96657.31;5082066;28;19955;-71
2023/06/25 10:02:18;;;;;;;;;;;;;;;28.32;34.39;96654.00;5100225;28;19941;-71
2023/06/25 10:04:44;;;;;;;;;;;;;;;28.43;33.79;96656.31;5083888;28;19947;-70
2023/06/25 10:07:11;;;;;;;;;;;;;;;28.49;33.90;96650.44;5084148;28;19937;-76
2023/06/25 10:09:37;;;;;;;;;;;;;;;28.61;33.48;96643.53;5084013;28;19944;-70
2023/06/25 10:12:03;;;;;;;;;;;;;;;28.67;31.31;96653.78;5083975;28;19944;-70
2023/06/25 10:14:38;;;;;;;;;;;;;;;28.70;33.59;96655.03;5083953;28;19933;-70
2023/06/25 10:17:04;;;;;;;;;;;;;;;28.76;33.17;96652.94;5083969;28;19940;-70
2023/06/25 10:19:30;;;;;;;;;;;;;;;28.80;32.90;96643.84;5084399;28;19953;-70
2023/06/25 10:22:05;;;;;;;;;;;;;;;28.83;32.15;96634.28;5083782;28;20036;-70
2023/06/25 10:24:38;;;;;;;;;;;;;;;28.73;28.32;96636.28;5084381;28;20108;-76
2023/06/25 10:27:04;;;;;;;;;;;;;;;28.66;30.68;96635.22;5083803;28;20233;-72
2023/06/25 10:29:50;;;;;;;;;;;;;;;28.48;31.31;96645.34;5083844;28;20247;-79
2023/06/25 10:32:20;;;;;;;;;;;;;;;28.41;29.89;96631.59;5083779;28;19955;-82
2023/06/25 10:34:55;;;;;;;;;;;;;;;28.44;29.62;96633.63;5083816;28;19941;-80
2023/06/25 10:37:27;;;;;;;;;;;;;;;28.49;29.85;96626.16;5083909;28;20125;-78
2023/06/25 10:40:00;;;;;;;;;;;;;;;28.52;30.92;96622.81;5084324;28;19950;-77
2023/06/25 10:42:28;;;;;;;;;;;;;;;28.58;30.80;96623.41;5083290;28;20217;-80
2023/06/25 10:44:54;;;;;;;;;;;;;;;28.65;30.63;96626.34;5083682;28;20112;-75
2023/06/25 10:47:20;;;;;;;;;;;;;;;28.73;31.22;96627.41;5083588;28;19934;-72
2023/06/25 10:49:46;;;;;;;;;;;;;;;28.85;28.65;96623.94;5084122;28;19939;-73
2023/06/25 10:52:12;;;;;;;;;;;;;;;28.93;30.86;96631.94;5083427;28;19941;-72
2023/06/25 10:54:37;;;;;;;;;;;;;;;29.09;31.68;96628.66;5082386;28;19937;-73
2023/06/25 10:57:07;;;;;;;;;;;;;;;29.39;31.82;96617.69;5082355;28;19940;-72
2023/06/25 10:59:33;;;;;;;;;;;;;;;29.64;32.04;96616.59;5083039;28;19946;-71
2023/06/25 11:02:28;;;;;;;;;;;;;;;29.84;30.52;96608.72;5083903;28;20192;-69
2023/06/25 11:04:55;;;;;;;;;;;;;;;29.80;29.51;96605.09;5086763;28;20008;-71
2023/06/25 11:07:22;;;;;;;;;;;;;;;29.71;29.74;96613.34;5084177;28;19932;-71
2023/06/25 11:09:53;;;;;;;;;;;;;;;29.75;30.50;96600.72;5083958;28;19948;-71
2023/06/25 11:12:19;;;;;;;;;;;;;;;29.67;29.50;96601.59;5087817;28;19933;-71
2023/06/25 11:14:45;;;;;;;;;;;;;;;29.81;30.37;96604.78;5086934;28;19978;-70
2023/06/25 11:17:14;;;;;;;;;;;;;;;29.90;30.82;96604.66;5087122;28;19977;-71
2023/06/25 11:19:40;;;;;;;;;;;;;;;30.07;30.13;96601.72;5087309;28;20130;-80
2023/06/25 11:22:07;;;;;;;;;;;;;;;30.06;29.75;96599.34;5086829;28;19942;-83
2023/06/25 11:24:33;;;;;;;;;;;;;;;30.11;28.55;96604.50;5087340;28;19955;-87
2023/06/25 11:26:59;;;;;;;;;;;;;;;30.00;26.91;96604.19;5103997;28;19934;-87
2023/06/25 11:29:34;;;;;;;;;;;;;;;30.05;28.52;96600.47;5086949;28;19949;-81
2023/06/25 11:31:59;;;;;;;;;;;;;;;29.99;29.15;96599.94;5086665;28;20049;-84
2023/06/25 11:34:25;;;;;;;;;;;;;;;30.17;29.85;96595.03;5087479;28;20180;-82
2023/06/25 11:36:51;;;;;;;;;;;;;;;30.43;29.77;96583.03;5102344;28;19980;-83
2023/06/25 11:39:18;;;;;;;;;;;;;;;30.60;29.26;96577.34;5087029;28;20238;-78
2023/06/25 11:41:44;;;;;;;;;;;;;;;30.73;28.91;96584.28;5086290;28;19952;-70
2023/06/25 11:44:16;;;;;;;;;;;;;;;30.83;28.58;96580.28;5086300;28;19935;-71
2023/06/25 11:46:42;;;;;;;;;;;;;;;30.71;26.70;96580.34;5086827;28;19941;-71
2023/06/25 11:49:08;;;;;;;;;;;;;;;30.59;27.69;96573.06;5086141;28;19932;-72
2023/06/25 11:51:34;;;;;;;;;;;;;;;30.68;28.54;96565.59;5087159;28;19999;-72
2023/06/25 11:54:00;;;;;;;;;;;;;;;30.71;27.51;96564.09;5086257;28;19944;-70
2023/06/25 11:56:26;;;;;;;;;;;;;;;30.65;27.16;96574.38;5086472;28;19978;-71
2023/06/25 11:58:52;;;;;;;;;;;;;;;30.50;26.16;96561.59;5086464;28;19977;-70
2023/06/25 12:01:18;;;;;;;;;;;;;;;30.34;27.26;96566.94;5085917;28;19958;-70
2023/06/25 12:03:44;;;;;;;;;;;;;;;30.38;27.93;96559.72;5086755;28;20147;-70
2023/06/25 12:06:10;;;;;;;;;;;;;;;30.59;27.68;96566.88;5085979;28;19937;-70
2023/06/25 12:08:35;;;;;;;;;;;;;;;30.66;25.44;96557.03;5085237;28;19945;-70
2023/06/25 12:11:01;;;;;;;;;;;;;;;30.63;26.63;96563.13;5085894;28;19996;-70
2023/06/25 12:13:27;;;;;;;;;;;;;;;30.59;26.63;96569.56;5085862;28;19937;-69
2023/06/25 12:15:53;;;;;;;;;;;;;;;30.53;27.10;96550.88;5084619;28;19937;-72
2023/06/25 12:18:19;;;;;;;;;;;;;;;30.63;27.48;96551.50;5086330;28;20239;-70
2023/06/25 12:20:45;;;;;;;;;;;;;;;30.60;26.69;96553.00;5085407;28;20009;-70
2023/06/25 12:23:10;;;;;;;;;;;;;;;30.63;27.12;96551.50;5085692;28;19942;-70
2023/06/25 12:25:38;;;;;;;;;;;;;;;30.58;24.55;96544.44;5086097;28;19937;-70
2023/06/25 12:28:04;;;;;;;;;;;;;;;30.55;26.56;96543.22;5085525;28;19936;-71
2023/06/25 12:30:30;;;;;;;;;;;;;;;30.62;25.61;96541.81;5085524;28;19957;-70
2023/06/25 12:32:56;;;;;;;;;;;;;;;30.65;28.23;96541.91;5086238;28;20144;-70
2023/06/25 12:35:22;;;;;;;;;;;;;;;30.89;27.58;96541.03;5085398;28;20220;-71
2023/06/25 12:37:48;;;;;;;;;;;;;;;30.97;25.36;96531.13;5085979;28;19937;-69
2023/06/25 12:40:14;;;;;;;;;;;;;;;30.89;25.56;96532.91;5085179;28;19954;-69
2023/06/25 12:42:40;;;;;;;;;;;;;;;30.80;25.37;96540.34;5085272;28;19939;-69
2023/06/25 12:45:07;;;;;;;;;;;;;;;30.82;25.00;96540.00;5085701;28;19931;-70